Terminal Aerodrome Forecast
Issued by NWS Hastings, NE

Current Version | Previous Version | Text Only | Print | Product List | Glossary On
Versions: 1 2 3 4 5 6 7 8 9 10 11 12 13 14 15 16 17 18 19 20 21 22 23
841
FTUS45 KGID 141120
TAFEAR
TAF
KEAR 141120Z 1412/1512 25011KT P6SM SKC WS020/32040KT
     FM141400 27012KT P6SM SKC
     FM150000 25008KT P6SM BKN120
     FM150800 28008KT P6SM BKN250
      AMD LTD TO CLD VIS AND WIND=

USA.gov is the U.S. government's official web portal to all federal, state and local government web resources and services.